Time;durP1;ratioP1;P1;durP2;ratioP2;P2;SDS_P1;SDS_P2;PMS_P1;PMS_P2;Temp;Humidity;BMP_temperature;BMP_pressure;BME280_temperature;BME280_humidity;BME280_pressure;Samples;Min_cycle;Max_cycle;Signal;HPM_P1;HPM_P2
2021/12/17 08:42:19;;;;;;;;;20.25;19.00;27.80;80.30;;;;;;5075363;27;13288;-66
2021/12/17 08:44:46;;;;;;;;;19.50;17.75;28.00;80.00;;;;;;5055714;28;9401;-66
2021/12/17 08:47:12;;;;;;;;;20.75;19.75;28.80;78.30;;;;;;5061066;28;8752;-66
2021/12/17 08:49:40;;;;;;;;;21.00;17.25;29.20;74.40;;;;;;5073677;28;8814;-66
2021/12/17 08:52:08;;;;;;;;;20.75;18.00;29.60;75.20;;;;;;5074809;28;8858;-65
2021/12/17 08:54:35;;;;;;;;;23.25;22.00;29.90;75.10;;;;;;5073691;28;9381;-66
2021/12/17 08:57:02;;;;;;;;;24.25;20.75;30.10;75.10;;;;;;5073629;28;8732;-66
2021/12/17 08:59:29;;;;;;;;;20.75;19.25;30.20;73.10;;;;;;5073636;28;8760;-65
2021/12/17 09:01:56;;;;;;;;;19.00;18.00;30.20;74.20;;;;;;5073300;28;8760;-66
2021/12/17 09:04:27;;;;;;;;;19.50;18.50;30.20;75.10;;;;;;5056007;28;8717;-66
2021/12/17 09:06:54;;;;;;;;;14.25;13.50;30.20;74.70;;;;;;5056583;28;8789;-65
2021/12/17 09:09:22;;;;;;;;;24.75;20.00;30.20;74.40;;;;;;5073596;28;8747;-65
2021/12/17 09:11:50;;;;;;;;;17.75;17.25;30.20;73.40;;;;;;5073213;28;8766;-65
2021/12/17 09:14:19;;;;;;;;;18.50;17.50;30.20;72.20;;;;;;5073203;28;8763;-66
2021/12/17 09:16:50;;;;;;;;;21.20;19.20;30.30;71.90;;;;;;5073483;28;8829;-66
2021/12/17 09:19:16;;;;;;;;;22.25;20.25;30.40;72.30;;;;;;5073873;28;8836;-67
2021/12/17 09:21:43;;;;;;;;;24.50;19.50;30.40;73.10;;;;;;5073076;28;9361;-65
2021/12/17 09:24:16;;;;;;;;;20.50;20.25;30.40;71.70;;;;;;5073393;28;8748;-66
2021/12/17 09:26:43;;;;;;;;;22.75;20.00;30.50;72.40;;;;;;5073364;28;9385;-66
2021/12/17 09:29:09;;;;;;;;;19.50;17.50;30.50;71.50;;;;;;5073348;28;8755;-66
2021/12/17 09:31:36;;;;;;;;;21.50;21.50;30.50;72.10;;;;;;5053263;28;8725;-66
2021/12/17 09:34:03;;;;;;;;;20.25;18.25;30.40;73.90;;;;;;5053784;28;8800;-66
2021/12/17 09:36:30;;;;;;;;;25.50;20.75;30.10;75.20;;;;;;5037997;28;8993;-66
2021/12/17 09:38:57;;;;;;;;;24.25;21.25;29.90;74.90;;;;;;5047797;28;8751;-66
2021/12/17 09:41:24;;;;;;;;;18.00;18.00;29.90;74.80;;;;;;5061410;28;9124;-66
2021/12/17 09:43:50;;;;;;;;;22.50;20.00;29.90;74.60;;;;;;5051838;28;8999;-66
2021/12/17 09:46:18;;;;;;;;;23.00;20.50;29.70;74.50;;;;;;5053511;28;8827;-66
2021/12/17 09:48:46;;;;;;;;;19.75;18.50;29.70;74.90;;;;;;5053233;28;8748;-65
2021/12/17 09:51:14;;;;;;;;;23.75;20.75;29.80;74.60;;;;;;5051791;28;8764;-66
2021/12/17 09:53:41;;;;;;;;;23.60;20.80;29.80;74.70;;;;;;5048910;28;8746;-66
2021/12/17 09:56:08;;;;;;;;;21.00;20.00;29.90;75.30;;;;;;5059490;28;9320;-66
2021/12/17 09:58:34;;;;;;;;;19.00;17.50;29.90;75.60;;;;;;5059095;28;8876;-66
2021/12/17 10:01:02;;;;;;;;;24.75;23.00;29.80;75.10;;;;;;5059670;28;8883;-66
2021/12/17 10:03:28;;;;;;;;;25.75;21.75;29.80;75.70;;;;;;5059000;28;8761;-65
2021/12/17 10:05:55;;;;;;;;;23.25;22.75;29.80;75.50;;;;;;5058847;28;8742;-66
2021/12/17 10:08:23;;;;;;;;;21.25;18.25;29.80;77.80;;;;;;5058860;28;8726;-66
2021/12/17 10:11:00;;;;;;;;;26.50;23.00;29.70;78.50;;;;;;5058865;28;8770;-66
2021/12/17 10:13:34;;;;;;;;;24.50;22.50;29.70;80.00;;;;;;5059349;28;8753;-66
2021/12/17 10:16:06;;;;;;;;;20.50;20.50;29.60;78.10;;;;;;5060182;28;8754;-65
2021/12/17 10:18:45;;;;;;;;;22.25;20.25;29.40;78.40;;;;;;5058750;28;8742;-65
2021/12/17 10:21:17;;;;;;;;;19.75;19.25;29.30;76.70;;;;;;5059390;28;8789;-65
2021/12/17 10:23:43;;;;;;;;;19.40;18.20;29.30;77.30;;;;;;5059259;28;8762;-65
2021/12/17 10:26:14;;;;;;;;;27.20;23.60;29.20;78.30;;;;;;5059490;28;8750;-65
2021/12/17 10:28:54;;;;;;;;;42.00;36.50;29.10;78.90;;;;;;5049253;28;8882;-65
2021/12/17 10:31:21;;;;;;;;;64.40;51.20;28.90;81.30;;;;;;5037796;28;8871;-65
2021/12/17 10:33:51;;;;;;;;;54.00;42.50;28.80;82.80;;;;;;5038921;28;8871;-65
2021/12/17 10:36:18;;;;;;;;;38.75;33.75;28.70;84.20;;;;;;5038788;28;8736;-66
2021/12/17 10:38:45;;;;;;;;;25.50;24.25;28.70;80.00;;;;;;5038733;28;8736;-65
2021/12/17 10:41:15;;;;;;;;;30.75;28.75;28.70;76.20;;;;;;5036860;28;9051;-65
2021/12/17 10:43:49;;;;;;;;;24.25;19.00;28.70;76.40;;;;;;5038414;28;9389;-65
2021/12/17 10:48:54;;;;;;;;;29.25;24.50;28.50;76.10;;;;;;5057870;28;8876;-65
2021/12/17 10:54:13;;;;;;;;;26.00;21.00;28.40;76.20;;;;;;5057899;28;8835;-65
2021/12/17 10:56:43;;;;;;;;;26.75;23.25;28.30;76.70;;;;;;5074022;28;8782;-65
2021/12/17 10:59:12;;;;;;;;;27.50;26.50;28.20;77.60;;;;;;5057505;28;8773;-65
2021/12/17 11:01:45;;;;;;;;;27.50;26.00;28.10;78.80;;;;;;5057900;28;8754;-65
2021/12/17 11:04:24;;;;;;;;;26.50;23.50;28.00;78.90;;;;;;5058304;28;8848;-65
2021/12/17 11:07:03;;;;;;;;;32.75;26.75;27.90;80.70;;;;;;5058607;28;8766;-65
2021/12/17 11:09:34;;;;;;;;;40.00;31.50;27.80;82.20;;;;;;5056641;28;8831;-65
2021/12/17 11:12:33;;;;;;;;;41.75;35.75;27.70;84.40;;;;;;5058037;28;8788;-65
2021/12/17 11:15:12;;;;;;;;;49.50;40.50;27.60;82.00;;;;;;5058412;28;8746;-65
2021/12/17 11:17:40;;;;;;;;;61.50;46.75;27.50;84.00;;;;;;5058284;28;8781;-65
2021/12/17 11:20:10;;;;;;;;;52.75;42.75;27.40;82.70;;;;;;5057967;28;8770;-65
2021/12/17 11:22:38;;;;;;;;;62.00;46.25;27.40;83.30;;;;;;5057521;28;8799;-65
2021/12/17 11:25:06;;;;;;;;;64.40;48.60;27.40;83.50;;;;;;5058066;28;8742;-65
2021/12/17 11:27:33;;;;;;;;;67.20;51.80;27.30;83.90;;;;;;5057522;28;8757;-65
2021/12/17 11:30:00;;;;;;;;;65.60;50.60;27.20;84.40;;;;;;5057598;28;8769;-65
2021/12/17 11:32:27;;;;;;;;;70.40;53.20;27.10;84.40;;;;;;5055912;28;8761;-65
2021/12/17 11:34:54;;;;;;;;;66.00;47.20;27.00;84.60;;;;;;5039557;28;8900;-65
2021/12/17 11:37:21;;;;;;;;;68.60;51.40;26.90;85.50;;;;;;5058003;28;8780;-65
2021/12/17 11:40:00;;;;;;;;;75.40;57.60;26.90;85.80;;;;;;5039813;28;8772;-65
2021/12/17 11:42:59;;;;;;;;;67.80;52.00;26.70;85.50;;;;;;5056168;28;8827;-65
2021/12/17 11:45:27;;;;;;;;;63.40;49.40;26.70;86.90;;;;;;5057619;28;8765;-65
2021/12/17 11:47:57;;;;;;;;;64.75;50.25;26.70;87.50;;;;;;5057416;28;8769;-65
2021/12/17 11:50:24;;;;;;;;;60.25;46.00;26.70;87.10;;;;;;5057492;28;8766;-65
2021/12/17 11:52:54;;;;;;;;;60.25;47.25;26.60;88.20;;;;;;5073014;28;8841;-65
2021/12/17 11:55:28;;;;;;;;;52.50;41.75;26.60;88.70;;;;;;5057952;28;8757;-65
2021/12/17 11:57:58;;;;;;;;;57.00;45.75;26.50;88.30;;;;;;5057768;28;8754;-65
2021/12/17 12:00:28;;;;;;;;;54.50;43.00;26.50;88.80;;;;;;5056844;28;8951;-65
2021/12/17 12:02:55;;;;;;;;;55.00;44.50;26.50;89.10;;;;;;5057056;28;8861;-65
2021/12/17 12:05:35;;;;;;;;;53.75;42.75;26.40;90.00;;;;;;5055343;28;8877;-65
2021/12/17 12:08:31;;;;;;;;;55.00;43.75;26.30;90.20;;;;;;5057675;28;8831;-65
2021/12/17 12:11:10;;;;;;;;;54.00;43.75;26.20;90.80;;;;;;5057163;28;8769;-65
2021/12/17 12:13:38;;;;;;;;;57.75;42.25;26.00;91.60;;;;;;5057223;28;8786;-65
2021/12/17 12:16:06;;;;;;;;;54.50;42.50;25.90;91.60;;;;;;5055963;28;8766;-64
2021/12/17 12:18:39;;;;;;;;;57.50;45.50;25.90;91.80;;;;;;5056294;28;8781;-65
2021/12/17 12:21:06;;;;;;;;;55.25;44.75;26.00;92.70;;;;;;5056779;28;8782;-65
2021/12/17 12:23:33;;;;;;;;;53.75;44.50;25.80;92.10;;;;;;5056335;28;8848;-65
2021/12/17 12:26:08;;;;;;;;;54.00;42.50;25.80;92.50;;;;;;5072001;28;8750;-65
2021/12/17 12:28:50;;;;;;;;;56.50;44.00;25.80;93.10;;;;;;5056137;28;8742;-65
2021/12/17 12:31:32;;;;;;;;;63.25;47.50;25.70;92.80;;;;;;5056857;28;8789;-64
2021/12/17 12:34:05;;;;;;;;;61.00;49.25;25.70;92.60;;;;;;5057563;28;8860;-64
2021/12/17 12:36:53;;;;;;;;;65.00;48.50;25.70;92.60;;;;;;5056521;28;8804;-65
2021/12/17 12:39:26;;;;;;;;;62.25;47.50;25.60;92.60;;;;;;5056183;28;8758;-65
2021/12/17 12:42:00;;;;;;;;;58.50;46.25;25.60;92.80;;;;;;5068823;28;8800;-65
2021/12/17 12:44:47;;;;;;;;;58.50;46.00;25.60;93.50;;;;;;5059081;28;9020;-64
2021/12/17 12:47:26;;;;;;;;;63.00;47.75;25.60;93.20;;;;;;5056967;28;8785;-65
2021/12/17 12:49:59;;;;;;;;;62.50;48.50;25.60;93.40;;;;;;5056907;28;8774;-65
2021/12/17 12:52:27;;;;;;;;;78.20;66.60;25.50;93.70;;;;;;5056526;28;8755;-65
2021/12/17 12:54:55;;;;;;;;;79.20;65.60;25.40;93.70;;;;;;5056917;28;8735;-64
2021/12/17 12:57:32;;;;;;;;;69.00;54.60;25.00;94.40;;;;;;5056464;28;8766;-65
2021/12/17 13:00:01;;;;;;;;;78.20;59.80;24.80;95.30;;;;;;5059611;28;8776;-65
2021/12/17 13:02:27;;;;;;;;;71.20;55.00;24.80;95.30;;;;;;5075290;28;8763;-65
2021/12/17 13:04:55;;;;;;;;;88.60;74.20;24.80;95.40;;;;;;5058414;28;8749;-65
2021/12/17 13:07:34;;;;;;;;;88.60;74.00;24.70;95.20;;;;;;5076581;28;9482;-65
2021/12/17 13:10:09;;;;;;;;;84.80;68.00;24.80;95.10;;;;;;5076454;28;8867;-65
2021/12/17 13:12:37;;;;;;;;;80.60;70.80;24.90;94.20;;;;;;5075795;28;9000;-65
2021/12/17 13:21:17;;;;;;;;;79.80;67.40;24.90;94.90;;;;;;5076808;28;8830;-65
2021/12/17 13:23:52;;;;;;;;;79.00;64.60;24.80;94.60;;;;;;5077045;28;8753;-65
2021/12/17 13:26:21;;;;;;;;;77.60;64.00;24.90;94.70;;;;;;5076464;28;8769;-65
2021/12/17 13:28:55;;;;;;;;;81.80;66.20;24.90;95.40;;;;;;5035187;28;9405;-65
2021/12/17 13:31:33;;;;;;;;;73.40;58.80;24.90;95.40;;;;;;5080119;28;8777;-65
2021/12/17 13:34:00;;;;;;;;;75.20;59.00;24.80;95.20;;;;;;5080752;28;8737;-65
2021/12/17 13:36:29;;;;;;;;;83.20;65.40;24.80;95.20;;;;;;5061655;28;8775;-65
2021/12/17 13:38:59;;;;;;;;;79.60;64.20;24.90;95.10;;;;;;5080045;28;8753;-65
2021/12/17 13:41:42;;;;;;;;;82.40;67.40;24.80;95.00;;;;;;5078939;28;8846;-64
2021/12/17 13:44:37;;;;;;;;;80.20;64.20;24.50;96.70;;;;;;5080644;28;8803;-64
2021/12/17 13:47:42;;;;;;;;;81.40;66.20;24.10;96.40;;;;;;5060466;28;8739;-64
2021/12/17 13:50:12;;;;;;;;;77.00;57.00;24.20;95.70;;;;;;5060559;28;8766;-64
2021/12/17 13:52:48;;;;;;;;;74.20;55.40;24.20;94.80;;;;;;5016339;28;9428;-65
2021/12/17 13:55:17;;;;;;;;;78.00;59.80;24.30;94.40;;;;;;5059962;28;8775;-64
2021/12/17 13:57:44;;;;;;;;;72.80;55.00;24.40;94.20;;;;;;5059447;28;8793;-65
2021/12/17 14:00:15;;;;;;;;;67.75;53.75;24.30;94.10;;;;;;5063094;28;8804;-64
2021/12/17 14:02:43;;;;;;;;;69.50;54.00;24.30;94.20;;;;;;5078934;28;8849;-64
2021/12/17 14:05:21;;;;;;;;;71.50;56.00;24.30;94.00;;;;;;5067310;28;9211;-64
2021/12/17 14:07:51;;;;;;;;;69.50;55.25;24.30;94.10;;;;;;5078842;28;9450;-65
2021/12/17 14:10:26;;;;;;;;;72.50;54.25;24.30;94.10;;;;;;5079737;28;9446;-65
2021/12/17 14:12:53;;;;;;;;;70.50;54.50;24.40;94.40;;;;;;5078918;28;8780;-64
2021/12/17 14:15:27;;;;;;;;;67.75;52.25;24.40;94.30;;;;;;5078492;28;8773;-65
2021/12/17 14:17:55;;;;;;;;;60.50;47.75;24.60;94.10;;;;;;5079030;28;8825;-65
2021/12/17 14:20:24;;;;;;;;;59.00;47.50;24.50;93.90;;;;;;5078524;28;8824;-65
2021/12/17 14:22:55;;;;;;;;;68.25;53.50;24.60;93.80;;;;;;5079139;28;9443;-65
2021/12/17 14:25:31;;;;;;;;;64.50;50.50;24.60;93.60;;;;;;5061236;28;8749;-65
2021/12/17 14:28:08;;;;;;;;;66.75;52.50;24.60;93.30;;;;;;5079463;28;9423;-65
2021/12/17 14:30:35;;;;;;;;;62.00;47.25;24.40;93.60;;;;;;5060391;28;8834;-65
2021/12/17 14:33:11;;;;;;;;;63.75;49.75;24.40;93.30;;;;;;5078610;28;8893;-64
2021/12/17 14:36:04;;;;;;;;;59.25;47.75;24.40;93.60;;;;;;5077701;28;8773;-64
2021/12/17 14:38:48;;;;;;;;;60.75;47.00;24.40;93.90;;;;;;5058448;28;8784;-65
2021/12/17 14:41:25;;;;;;;;;56.75;45.25;24.30;94.10;;;;;;5078291;28;8784;-64
2021/12/17 14:43:58;;;;;;;;;55.75;43.75;24.20;94.30;;;;;;5078245;28;8772;-65
2021/12/17 14:46:28;;;;;;;;;57.75;45.25;24.30;94.60;;;;;;5077322;28;8764;-67
2021/12/17 14:57:13;;;;;;;;;61.75;49.00;24.20;94.40;;;;;;5078833;28;8765;-65
2021/12/17 15:00:47;;;;;;;;;76.40;60.60;23.60;95.80;;;;;;5077748;28;8920;-65
2021/12/17 15:05:56;;;;;;;;;74.60;65.40;23.50;96.70;;;;;;5077864;28;9168;-64
2021/12/17 15:08:24;;;;;;;;;72.80;57.60;23.40;97.10;;;;;;5078209;28;8761;-65
2021/12/17 15:10:51;;;;;;;;;78.00;66.40;23.40;97.20;;;;;;5060038;28;8756;-64
2021/12/17 15:13:18;;;;;;;;;74.40;61.40;23.50;97.30;;;;;;5077825;28;8748;-66
2021/12/17 15:15:45;;;;;;;;;69.80;53.60;23.60;97.20;;;;;;5077793;28;8788;-64
2021/12/17 15:18:19;;;;;;;;;67.20;52.00;23.50;97.20;;;;;;5077461;28;8764;-65
2021/12/17 15:20:51;;;;;;;;;72.60;60.00;23.20;97.70;;;;;;5077966;28;8796;-65
2021/12/17 15:23:18;;;;;;;;;71.60;54.00;23.10;97.90;;;;;;5077407;28;8781;-66
2021/12/17 15:25:45;;;;;;;;;72.20;56.60;23.10;98.20;;;;;;5077763;28;8807;-65
2021/12/17 15:28:14;;;;;;;;;69.00;53.80;23.20;97.90;;;;;;5078226;28;8902;-65
2021/12/17 15:30:46;;;;;;;;;57.00;46.40;23.30;97.50;;;;;;5050521;28;8794;-65
2021/12/17 15:33:13;;;;;;;;;68.40;51.40;23.40;97.60;;;;;;5057555;28;8773;-65
2021/12/17 15:35:40;;;;;;;;;73.80;61.60;23.50;97.70;;;;;;5057616;28;8882;-65
2021/12/17 15:38:09;;;;;;;;;69.60;52.60;23.60;97.50;;;;;;5039851;28;8897;-65
2021/12/17 15:40:41;;;;;;;;;72.80;60.00;23.50;97.50;;;;;;5022498;28;8880;-65
2021/12/17 15:43:11;;;;;;;;;73.60;64.60;23.50;97.10;;;;;;5057562;28;8779;-65
2021/12/17 15:45:39;;;;;;;;;78.00;66.40;23.20;97.40;;;;;;5047260;28;8781;-65
2021/12/17 15:48:07;;;;;;;;;77.00;62.60;23.00;98.20;;;;;;5060324;28;8814;-65
2021/12/17 15:50:34;;;;;;;;;74.80;63.00;22.90;98.40;;;;;;5042101;28;8785;-64
2021/12/17 15:53:01;;;;;;;;;73.80;59.20;22.80;98.70;;;;;;5059350;28;8831;-64
2021/12/17 15:55:28;;;;;;;;;71.80;57.60;22.80;98.60;;;;;;5059002;28;8753;-65
2021/12/17 15:57:56;;;;;;;;;76.40;60.00;22.80;98.60;;;;;;5077695;28;8741;-65
2021/12/17 16:00:26;;;;;;;;;75.00;62.20;22.80;98.60;;;;;;5076633;28;8772;-64
2021/12/17 16:02:53;;;;;;;;;78.00;67.00;23.00;98.30;;;;;;5077036;28;8775;-64
2021/12/17 16:05:22;;;;;;;;;76.80;63.20;22.90;98.10;;;;;;5076317;28;8785;-65
2021/12/17 16:07:51;;;;;;;;;76.40;67.00;22.80;98.30;;;;;;5076540;28;8741;-65
2021/12/17 16:21:14;;;;;;;;;82.60;69.40;22.80;98.60;;;;;;5077123;28;8772;-64
2021/12/17 16:23:44;;;;;;;;;102.60;94.60;22.80;98.70;;;;;;5058423;28;8749;-65
2021/12/17 16:26:11;;;;;;;;;115.60;103.40;22.80;98.70;;;;;;5076720;28;8776;-64
2021/12/17 16:28:38;;;;;;;;;112.00;99.40;22.90;98.70;;;;;;5058974;28;8752;-64
2021/12/17 16:31:11;;;;;;;;;105.80;92.60;22.90;98.30;;;;;;5047597;28;8767;-64
2021/12/17 16:33:38;;;;;;;;;97.80;83.60;22.90;98.60;;;;;;5056488;28;8787;-64
2021/12/17 16:36:06;;;;;;;;;91.60;81.80;22.80;98.60;;;;;;5056642;28;8759;-64
2021/12/17 16:38:33;;;;;;;;;97.20;85.20;22.60;99.10;;;;;;5056573;28;8762;-65
2021/12/17 16:41:00;;;;;;;;;89.00;79.80;22.60;99.00;;;;;;5056625;28;8912;-64
2021/12/17 16:43:27;;;;;;;;;87.00;77.80;22.60;99.10;;;;;;5055723;28;9064;-65
2021/12/17 16:48:46;;;;;;;;;91.20;81.80;22.20;99.90;;;;;;5076179;28;8858;-65
2021/12/17 16:51:13;;;;;;;;;85.80;77.00;22.50;99.50;;;;;;5076840;28;8777;-64
2021/12/17 16:53:40;;;;;;;;;89.60;74.00;22.40;99.50;;;;;;5076370;28;8760;-64
2021/12/17 16:56:07;;;;;;;;;89.40;79.20;22.20;99.90;;;;;;5076592;28;8861;-64
2021/12/17 16:58:34;;;;;;;;;96.60;84.20;22.30;99.90;;;;;;5076153;28;8745;-64
2021/12/17 17:01:01;;;;;;;;;89.80;72.80;22.30;99.90;;;;;;5076755;28;9465;-64
2021/12/17 17:03:28;;;;;;;;;85.60;75.20;22.40;99.90;;;;;;5078910;28;8753;-64
2021/12/17 17:06:00;;;;;;;;;80.20;72.40;22.50;99.80;;;;;;5079280;28;8772;-64
2021/12/17 17:08:27;;;;;;;;;80.80;73.20;22.50;99.60;;;;;;5079064;28;8857;-65
2021/12/17 17:11:00;;;;;;;;;79.60;70.00;22.50;99.70;;;;;;5080334;28;8990;-65
2021/12/17 17:13:27;;;;;;;;;81.20;73.00;22.50;99.90;;;;;;5080252;28;8744;-65
2021/12/17 17:15:56;;;;;;;;;78.00;68.00;22.40;99.90;;;;;;5080489;28;8773;-64
2021/12/17 17:18:23;;;;;;;;;83.20;73.40;22.40;99.90;;;;;;5061922;28;8752;-65
2021/12/17 17:20:49;;;;;;;;;83.60;71.40;22.30;99.90;;;;;;5079800;28;8910;-64
2021/12/17 17:23:16;;;;;;;;;80.40;67.40;22.40;99.90;;;;;;5080183;28;8764;-64
2021/12/17 17:25:43;;;;;;;;;82.40;70.40;22.40;99.90;;;;;;5079470;28;9412;-65
2021/12/17 17:28:10;;;;;;;;;76.40;66.80;22.40;99.90;;;;;;5080494;28;8770;-64
2021/12/17 17:30:37;;;;;;;;;81.20;72.20;22.30;99.90;;;;;;5079313;28;8777;-65
2021/12/17 17:33:04;;;;;;;;;82.00;72.00;22.20;99.90;;;;;;5079962;28;8752;-64
2021/12/17 17:35:33;;;;;;;;;86.60;72.00;22.20;99.90;;;;;;5079394;28;8804;-65
2021/12/17 17:38:00;;;;;;;;;85.60;72.00;22.30;99.90;;;;;;5079754;28;8756;-64
2021/12/17 17:40:35;;;;;;;;;77.40;65.00;22.20;99.90;;;;;;5079281;28;8768;-65
2021/12/17 17:43:03;;;;;;;;;86.00;75.20;22.20;99.90;;;;;;5079135;28;8878;-64
2021/12/17 17:45:34;;;;;;;;;79.80;68.00;22.00;99.90;;;;;;5057638;28;8766;-64
2021/12/17 17:48:01;;;;;;;;;86.80;75.60;22.00;99.90;;;;;;5059507;28;8768;-64
2021/12/17 17:50:28;;;;;;;;;79.20;68.20;22.10;99.90;;;;;;5058098;28;8773;-64
2021/12/17 17:52:54;;;;;;;;;74.40;66.00;22.10;99.90;;;;;;5058292;28;8776;-64
2021/12/17 17:55:21;;;;;;;;;86.60;78.60;22.00;99.90;;;;;;5058447;28;8876;-65
2021/12/17 17:57:48;;;;;;;;;77.20;64.20;21.80;99.90;;;;;;5059661;28;9062;-64
2021/12/17 18:00:16;;;;;;;;;80.80;74.60;21.80;99.90;;;;;;5057904;28;8754;-64
2021/12/17 18:02:43;;;;;;;;;80.00;74.40;21.80;99.90;;;;;;5059495;28;8775;-65
2021/12/17 18:05:12;;;;;;;;;92.60;79.60;21.80;99.90;;;;;;5058361;28;8765;-64
2021/12/17 18:07:39;;;;;;;;;83.80;74.80;21.60;99.90;;;;;;5074330;28;8733;-64
2021/12/17 18:10:05;;;;;;;;;88.20;76.60;21.60;99.90;;;;;;5059922;28;8726;-64
2021/12/17 18:12:35;;;;;;;;;82.80;75.00;21.60;99.90;;;;;;5058910;28;8761;-64
2021/12/17 18:15:02;;;;;;;;;83.60;72.20;21.70;99.90;;;;;;5058904;28;8742;-64
2021/12/17 18:17:28;;;;;;;;;78.00;64.60;21.60;99.90;;;;;;5058836;28;8785;-65
2021/12/17 18:19:55;;;;;;;;;79.60;69.00;21.70;99.90;;;;;;5059287;28;8758;-64
2021/12/17 18:22:22;;;;;;;;;75.40;67.80;21.70;99.90;;;;;;5059221;28;9378;-65
2021/12/17 18:24:48;;;;;;;;;77.60;64.20;21.60;99.90;;;;;;5058997;28;8738;-64
2021/12/17 18:27:15;;;;;;;;;80.20;68.80;21.30;99.90;;;;;;5058704;28;8730;-65
2021/12/17 18:29:42;;;;;;;;;83.40;72.40;21.20;99.90;;;;;;5057455;28;8761;-64
2021/12/17 18:32:09;;;;;;;;;77.20;65.80;21.20;99.90;;;;;;5058883;28;8764;-64
2021/12/17 18:34:36;;;;;;;;;75.60;63.80;21.30;99.90;;;;;;5058547;28;8880;-64
2021/12/17 18:37:03;;;;;;;;;80.20;69.40;21.50;99.90;;;;;;5059518;28;8741;-64
2021/12/17 18:39:29;;;;;;;;;78.00;65.00;21.50;99.90;;;;;;5058427;28;8734;-64
2021/12/17 18:44:41;;;;;;;;;78.60;66.80;21.60;99.90;;;;;;5070158;28;8757;-65
2021/12/17 18:47:07;;;;;;;;;77.60;61.20;21.80;99.90;;;;;;5078531;28;8830;-65
2021/12/17 18:49:34;;;;;;;;;78.40;67.00;21.90;99.90;;;;;;5078084;28;8830;-65
2021/12/17 18:52:01;;;;;;;;;79.80;68.00;21.80;99.90;;;;;;5079348;28;8712;-65
2021/12/17 18:54:27;;;;;;;;;80.20;64.60;21.80;99.90;;;;;;5044099;28;8736;-65
2021/12/17 18:56:54;;;;;;;;;82.80;71.40;21.70;99.90;;;;;;5078226;28;9408;-64
2021/12/17 18:59:21;;;;;;;;;81.00;70.80;21.70;99.90;;;;;;5078242;28;8717;-65
2021/12/17 19:01:47;;;;;;;;;76.00;65.60;21.60;99.90;;;;;;5077904;28;8737;-64
2021/12/17 19:04:15;;;;;;;;;80.60;70.00;21.40;99.90;;;;;;5077476;28;8769;-64
2021/12/17 19:06:42;;;;;;;;;77.00;65.40;21.50;99.90;;;;;;5077856;28;9077;-65
2021/12/17 19:09:09;;;;;;;;;81.40;70.20;21.60;99.90;;;;;;5078172;28;8777;-64
2021/12/17 19:11:36;;;;;;;;;76.40;64.60;21.70;99.90;;;;;;5077733;28;8744;-65
2021/12/17 19:14:04;;;;;;;;;80.40;62.80;21.70;99.90;;;;;;5077682;28;8771;-65
2021/12/17 19:16:31;;;;;;;;;73.60;61.00;21.70;99.90;;;;;;5077538;28;8860;-66
2021/12/17 19:21:30;;;;;;;;;76.80;63.00;21.70;99.90;;;;;;5060799;28;8846;-65
2021/12/17 19:24:00;;;;;;;;;80.80;65.40;21.60;99.90;;;;;;5077837;28;8757;-64
2021/12/17 19:26:26;;;;;;;;;79.00;66.40;21.60;99.90;;;;;;5059000;28;8775;-65
2021/12/17 19:28:53;;;;;;;;;80.80;67.00;21.60;99.90;;;;;;5077777;28;8760;-64
2021/12/17 19:31:20;;;;;;;;;74.40;59.20;21.60;99.90;;;;;;5077955;28;8733;-64
2021/12/17 19:33:47;;;;;;;;;76.20;62.80;21.50;99.90;;;;;;5076268;28;8733;-64
2021/12/17 19:36:13;;;;;;;;;88.20;73.40;21.50;99.90;;;;;;5060089;28;9519;-64
2021/12/17 19:38:40;;;;;;;;;79.60;64.20;21.40;99.90;;;;;;5059526;28;8764;-65
2021/12/17 19:41:09;;;;;;;;;80.40;67.00;21.40;99.90;;;;;;5077329;28;8756;-64
2021/12/17 19:43:39;;;;;;;;;80.20;67.00;21.40;99.90;;;;;;5076843;28;8744;-65
2021/12/17 19:46:09;;;;;;;;;79.80;69.80;21.50;99.90;;;;;;5077816;28;8818;-64
2021/12/17 19:48:39;;;;;;;;;78.00;66.60;21.50;99.90;;;;;;5059159;28;8834;-65
2021/12/17 19:51:07;;;;;;;;;84.00;70.00;21.40;99.90;;;;;;5077589;28;8745;-64
2021/12/17 19:53:34;;;;;;;;;81.20;72.40;21.40;99.90;;;;;;5059541;28;8776;-65
2021/12/17 19:56:01;;;;;;;;;78.80;65.60;21.40;99.90;;;;;;5076890;28;8767;-65
2021/12/17 19:58:28;;;;;;;;;79.80;67.40;21.30;99.90;;;;;;5076810;28;8748;-65
2021/12/17 20:00:55;;;;;;;;;78.80;65.60;21.40;99.90;;;;;;5049564;28;8811;-64
2021/12/17 20:03:22;;;;;;;;;80.40;70.20;21.20;99.90;;;;;;5057078;28;8878;-65
2021/12/17 20:05:48;;;;;;;;;81.20;68.20;21.30;99.90;;;;;;5057322;28;8763;-64
2021/12/17 20:08:18;;;;;;;;;82.60;69.80;21.40;99.90;;;;;;5057167;28;8773;-64
2021/12/17 20:10:46;;;;;;;;;79.20;65.80;21.40;99.90;;;;;;5057021;28;8932;-64
2021/12/17 20:13:14;;;;;;;;;80.00;67.80;21.40;99.90;;;;;;5057634;28;8837;-64
2021/12/17 20:15:41;;;;;;;;;80.00;70.00;21.40;99.90;;;;;;5064588;28;8831;-64
2021/12/17 20:18:07;;;;;;;;;82.40;71.20;21.30;99.90;;;;;;5076798;28;8879;-64
2021/12/17 20:20:37;;;;;;;;;80.00;65.80;21.10;99.90;;;;;;5076713;28;8776;-64
2021/12/17 20:23:03;;;;;;;;;77.00;66.20;21.20;99.90;;;;;;5076787;28;8842;-64
2021/12/17 20:25:30;;;;;;;;;78.60;68.00;21.30;99.90;;;;;;5076384;28;9398;-65
2021/12/17 20:27:59;;;;;;;;;78.20;66.20;21.30;99.90;;;;;;5077503;28;8841;-64
2021/12/17 20:30:25;;;;;;;;;74.60;58.40;21.30;99.90;;;;;;5076412;28;8814;-65
2021/12/17 20:32:52;;;;;;;;;78.40;64.20;21.20;99.90;;;;;;5076928;28;8807;-65
2021/12/17 20:35:19;;;;;;;;;79.00;66.20;21.20;99.90;;;;;;5076709;28;8845;-65
2021/12/17 20:37:45;;;;;;;;;74.40;58.00;21.30;99.90;;;;;;5076277;28;8749;-65
2021/12/17 20:40:19;;;;;;;;;72.60;57.60;21.30;99.90;;;;;;5077207;28;8780;-65
2021/12/17 20:42:50;;;;;;;;;68.80;54.20;21.40;99.90;;;;;;5059606;28;8927;-65
2021/12/17 20:45:19;;;;;;;;;79.60;69.00;21.40;99.90;;;;;;5075995;28;9448;-66
2021/12/17 20:47:46;;;;;;;;;78.20;63.00;21.30;99.90;;;;;;5059118;28;8741;-64
2021/12/17 20:50:13;;;;;;;;;79.80;65.40;21.40;99.90;;;;;;5077011;28;8772;-65
2021/12/17 20:52:39;;;;;;;;;75.20;57.80;21.40;99.90;;;;;;5076492;28;8729;-64
2021/12/17 20:55:09;;;;;;;;;74.40;60.40;21.40;99.90;;;;;;5077571;28;8756;-64
2021/12/17 20:57:38;;;;;;;;;70.40;58.20;21.40;99.90;;;;;;5076731;28;8839;-65
2021/12/17 21:00:07;;;;;;;;;67.60;52.40;21.40;99.90;;;;;;5076753;28;9433;-64
2021/12/17 21:02:34;;;;;;;;;67.20;54.00;21.20;99.90;;;;;;5058328;28;8884;-64
2021/12/17 21:05:01;;;;;;;;;73.40;56.60;21.10;99.90;;;;;;5076856;28;8745;-64
2021/12/17 21:07:27;;;;;;;;;73.80;57.80;21.10;99.90;;;;;;5076456;28;8729;-65
2021/12/17 21:09:54;;;;;;;;;69.80;53.80;21.10;99.90;;;;;;5077105;28;8821;-64
2021/12/17 21:12:21;;;;;;;;;69.60;54.60;21.10;99.90;;;;;;5075980;28;8741;-64
2021/12/17 21:14:47;;;;;;;;;68.60;54.00;21.20;99.90;;;;;;5076228;28;9252;-64
2021/12/17 21:17:14;;;;;;;;;71.00;56.60;21.30;99.90;;;;;;5076360;28;8759;-64
2021/12/17 21:19:41;;;;;;;;;66.75;52.00;21.20;99.90;;;;;;5076397;28;8752;-64
2021/12/17 21:22:10;;;;;;;;;68.40;53.20;21.40;99.90;;;;;;5076838;28;8721;-64
2021/12/17 21:24:37;;;;;;;;;68.25;53.50;21.20;99.90;;;;;;5075647;28;8740;-64
2021/12/17 21:27:04;;;;;;;;;59.50;47.25;21.30;99.90;;;;;;5076241;28;8709;-64
2021/12/17 21:29:31;;;;;;;;;63.25;46.75;21.30;99.90;;;;;;5076133;28;8755;-65
2021/12/17 21:31:57;;;;;;;;;58.00;47.75;21.30;99.90;;;;;;5039697;28;8774;-64
2021/12/17 21:34:24;;;;;;;;;65.50;49.75;21.20;99.90;;;;;;5056663;28;8769;-65
2021/12/17 21:36:51;;;;;;;;;63.00;49.00;21.10;99.90;;;;;;5056446;28;10014;-64
2021/12/17 21:39:18;;;;;;;;;68.00;51.80;21.00;99.90;;;;;;5055840;28;8767;-65
2021/12/17 21:41:45;;;;;;;;;65.20;52.80;20.90;99.90;;;;;;5038131;28;8786;-65
2021/12/17 21:44:12;;;;;;;;;74.60;56.80;20.80;99.90;;;;;;5056112;28;8787;-65
2021/12/17 21:46:38;;;;;;;;;73.00;57.60;20.80;99.90;;;;;;5072087;28;9448;-64
2021/12/17 21:49:08;;;;;;;;;72.60;55.80;20.70;99.90;;;;;;5078495;28;9420;-64
2021/12/17 21:51:35;;;;;;;;;77.00;60.00;20.70;99.90;;;;;;5079608;28;9432;-64
2021/12/17 21:54:02;;;;;;;;;73.60;57.60;20.60;99.90;;;;;;5061765;28;8791;-64
2021/12/17 21:56:28;;;;;;;;;73.40;56.20;20.60;99.90;;;;;;5060455;28;8746;-65
2021/12/17 21:58:55;;;;;;;;;72.80;55.00;20.60;99.90;;;;;;5071510;28;8753;-64
2021/12/17 22:01:22;;;;;;;;;70.40;55.40;20.80;99.90;;;;;;5048031;28;8787;-65
2021/12/17 22:03:49;;;;;;;;;70.40;54.60;20.80;99.90;;;;;;5042057;28;8739;-64
2021/12/17 22:06:16;;;;;;;;;69.80;54.40;20.70;99.90;;;;;;5059381;28;8763;-64
2021/12/17 22:08:43;;;;;;;;;70.20;54.40;20.80;99.90;;;;;;5041566;28;8769;-65
2021/12/17 22:11:09;;;;;;;;;75.00;63.00;20.80;99.90;;;;;;5059392;28;8759;-64